createdAt,value
2022-10-06T00:01:08.454Z,101692.75
2022-10-06T00:03:38.264Z,101692.75
2022-10-06T00:06:07.865Z,101688.50
2022-10-06T00:08:37.364Z,101692.94
2022-10-06T00:11:05.946Z,101695.84
2022-10-06T00:13:33.406Z,101690.53
2022-10-06T00:16:01.222Z,101693.31
2022-10-06T00:18:31.751Z,101694.38
2022-10-06T00:21:00.915Z,101698.22
2022-10-06T00:23:29.094Z,101697.34
2022-10-06T00:25:58.443Z,101703.88
2022-10-06T00:28:26.390Z,101708.50
2022-10-06T00:30:56.308Z,101701.66
2022-10-06T00:33:24.218Z,101703.66
2022-10-06T00:35:58.661Z,101709.06
2022-10-06T00:38:26.297Z,101700.19
2022-10-06T00:40:54.055Z,101701.84
2022-10-06T00:43:50.392Z,101704.34
2022-10-06T00:46:29.802Z,101689.69
2022-10-06T00:49:08.114Z,101689.47
2022-10-06T00:51:36.922Z,101688.31
2022-10-06T00:54:09.162Z,101680.03
2022-10-06T00:56:39.921Z,101678.88
2022-10-06T00:59:12.671Z,101674.34
2022-10-06T01:01:44.903Z,101670.03
2022-10-06T01:04:14.554Z,101671.19
2022-10-06T01:06:45.308Z,101668.78
2022-10-06T01:09:15.026Z,101661.81
2022-10-06T01:11:43.015Z,101662.00
2022-10-06T01:14:11.659Z,101658.53
2022-10-06T01:16:41.558Z,101655.94
2022-10-06T01:19:17.712Z,101661.50
2022-10-06T01:21:46.891Z,101655.47
2022-10-06T01:24:14.383Z,101659.38
2022-10-06T01:26:45.536Z,101663.22
2022-10-06T01:29:13.446Z,101668.81
2022-10-06T01:31:43.038Z,101677.06
2022-10-06T01:34:12.877Z,101678.28
2022-10-06T01:36:41.604Z,101672.31
2022-10-06T01:39:09.129Z,101657.31
2022-10-06T01:41:36.477Z,101662.91
2022-10-06T01:44:03.669Z,101659.78
2022-10-06T01:46:31.083Z,101653.91
2022-10-06T01:48:59.948Z,101652.44
2022-10-06T01:51:27.291Z,101654.56
2022-10-06T01:53:54.855Z,101649.50
2022-10-06T01:56:22.301Z,101649.78
2022-10-06T01:58:49.560Z,101655.34
2022-10-06T02:01:16.808Z,101659.09
2022-10-06T02:03:48.062Z,101656.47
2022-10-06T02:06:15.361Z,101663.63
2022-10-06T02:08:43.274Z,101668.19
2022-10-06T02:11:12.062Z,101673.59
2022-10-06T02:13:40.806Z,101681.56
2022-10-06T02:16:09.331Z,101678.09
2022-10-06T02:18:36.839Z,101678.09
2022-10-06T02:21:04.805Z,101675.75
2022-10-06T02:23:33.541Z,101664.41
2022-10-06T02:26:05.367Z,101665.53
2022-10-06T02:28:33.288Z,101673.69
2022-10-06T02:31:04.482Z,101680.97
2022-10-06T02:33:32.800Z,101688.28
2022-10-06T02:36:00.338Z,101696.44
2022-10-06T02:38:27.950Z,101686.81
2022-10-06T02:40:55.518Z,101686.88
2022-10-06T02:43:22.857Z,101691.56
2022-10-06T02:45:58.131Z,101687.25
2022-10-06T02:48:26.757Z,101698.16
2022-10-06T02:51:02.197Z,101703.69
2022-10-06T02:53:29.918Z,101709.06
2022-10-06T02:55:59.445Z,101699.19
2022-10-06T02:58:30.311Z,101701.72
2022-10-06T03:01:28.521Z,101707.63
2022-10-06T03:03:56.112Z,101696.59
2022-10-06T03:06:25.731Z,101699.78
2022-10-06T03:09:02.658Z,101705.81
2022-10-06T03:11:34.674Z,101705.53
2022-10-06T03:14:02.278Z,101694.59
2022-10-06T03:16:39.439Z,101692.59
2022-10-06T03:19:09.343Z,101710.22
2022-10-06T03:21:41.700Z,101706.41
2022-10-06T03:24:11.034Z,101718.53
2022-10-06T03:26:41.448Z,101710.28
2022-10-06T03:29:11.863Z,101715.50
2022-10-06T03:31:40.283Z,101721.63
2022-10-06T03:34:08.100Z,101718.88
2022-10-06T03:36:35.984Z,101719.75
2022-10-06T03:39:04.962Z,101721.47
2022-10-06T03:41:34.929Z,101717.06
2022-10-06T03:44:03.159Z,101711.75
2022-10-06T03:46:33.463Z,101715.41
2022-10-06T03:49:01.681Z,101716.47
2022-10-06T03:51:31.901Z,101713.94
2022-10-06T03:53:59.833Z,101722.19
2022-10-06T03:56:35.384Z,101725.13
2022-10-06T03:59:05.608Z,101721.66
2022-10-06T04:01:43.266Z,101719.06
2022-10-06T04:04:11.748Z,101731.75
2022-10-06T04:06:41.751Z,101731.75
2022-10-06T04:09:16.200Z,101732.78
2022-10-06T04:11:44.538Z,101726.44
2022-10-06T04:14:15.423Z,101724.59
2022-10-06T04:16:47.984Z,101730.63
2022-10-06T04:19:17.292Z,101722.06
2022-10-06T04:21:46.853Z,101726.06
2022-10-06T04:24:14.692Z,101729.97
2022-10-06T04:26:45.472Z,101717.09
2022-10-06T04:29:13.535Z,101713.69
2022-10-06T04:31:42.615Z,101710.72
2022-10-06T04:34:13.282Z,101714.69
2022-10-06T04:36:42.625Z,101710.75
2022-10-06T04:39:13.041Z,101704.03
2022-10-06T04:41:42.362Z,101704.44
2022-10-06T04:44:10.397Z,101700.25
2022-10-06T04:46:45.585Z,101698.59
2022-10-06T04:49:19.503Z,101701.50
2022-10-06T04:51:48.638Z,101698.91
2022-10-06T04:54:16.034Z,101698.81
2022-10-06T04:56:43.340Z,101687.13
2022-10-06T04:59:13.845Z,101696.72
2022-10-06T05:01:41.279Z,101687.72
2022-10-06T05:04:08.942Z,101693.06
2022-10-06T05:06:41.416Z,101686.66
2022-10-06T05:09:11.912Z,101700.91
2022-10-06T05:11:40.876Z,101692.81
2022-10-06T05:14:16.458Z,101692.72
2022-10-06T05:16:44.282Z,101691.03
2022-10-06T05:19:11.770Z,101691.13
2022-10-06T05:21:39.586Z,101690.38
2022-10-06T05:24:08.066Z,101692.63
2022-10-06T05:26:36.951Z,101687.69
2022-10-06T05:29:04.706Z,101691.69
2022-10-06T05:31:35.257Z,101701.84
2022-10-06T05:34:02.821Z,101700.44
2022-10-06T05:36:32.572Z,101700.63
2022-10-06T05:39:00.743Z,101709.78
2022-10-06T05:41:30.285Z,101710.13
2022-10-06T05:43:58.983Z,101719.56
2022-10-06T05:46:28.677Z,101719.63
2022-10-06T05:48:57.732Z,101722.06
2022-10-06T05:51:31.234Z,101716.59
2022-10-06T05:53:59.553Z,101716.88
2022-10-06T05:56:29.132Z,101720.41
2022-10-06T05:58:58.034Z,101723.66
2022-10-06T06:01:26.490Z,101719.28
2022-10-06T06:03:56.541Z,101711.81
2022-10-06T06:06:26.005Z,101714.22
2022-10-06T06:08:58.334Z,101723.41
2022-10-06T06:11:27.770Z,101711.34
2022-10-06T06:14:01.968Z,101720.84
2022-10-06T06:16:34.037Z,101716.88
2022-10-06T06:19:06.020Z,101720.69
2022-10-06T06:21:34.050Z,101718.47
2022-10-06T06:24:02.538Z,101719.56
2022-10-06T06:26:32.062Z,101707.69
2022-10-06T06:29:02.642Z,101705.97
2022-10-06T06:31:35.865Z,101706.19
2022-10-06T06:34:07.418Z,101706.97
2022-10-06T06:36:40.861Z,101710.06
2022-10-06T06:39:10.121Z,101704.97
2022-10-06T06:41:45.729Z,101711.66
2022-10-06T06:44:14.117Z,101709.88
2022-10-06T06:46:49.234Z,101720.72
2022-10-06T06:49:17.216Z,101708.28
2022-10-06T06:51:49.827Z,101718.97
2022-10-06T06:54:18.284Z,101718.94
2022-10-06T06:56:46.625Z,101715.31
2022-10-06T06:59:13.914Z,101718.53
2022-10-06T07:01:45.720Z,101726.69
2022-10-06T07:04:15.041Z,101721.44
2022-10-06T07:06:57.968Z,101720.16
2022-10-06T07:09:27.196Z,101724.53
2022-10-06T07:11:57.712Z,101716.69
2022-10-06T07:14:25.127Z,101713.72
2022-10-06T07:17:10.936Z,101720.75
2022-10-06T07:19:47.565Z,101714.66
2022-10-06T07:22:35.610Z,101706.78
2022-10-06T07:25:11.831Z,101710.22
2022-10-06T07:27:44.776Z,101710.38
2022-10-06T07:30:19.072Z,101716.16
2022-10-06T07:32:47.855Z,101711.13
2022-10-06T07:35:16.752Z,101710.28
2022-10-06T07:37:44.029Z,101697.94
2022-10-06T07:40:11.523Z,101700.69
2022-10-06T07:42:49.131Z,101707.72
2022-10-06T07:45:38.411Z,101701.13
2022-10-06T07:48:08.020Z,101703.41
2022-10-06T07:50:38.128Z,101696.22
2022-10-06T07:53:08.769Z,101698.53
2022-10-06T07:55:37.535Z,101704.28
2022-10-06T07:58:04.802Z,101691.66
2022-10-06T08:03:05.266Z,101692.06
2022-10-06T08:05:34.708Z,101685.69
2022-10-06T08:08:03.498Z,101687.25
2022-10-06T08:10:31.462Z,101689.47
2022-10-06T08:12:58.655Z,101682.00
2022-10-06T08:15:25.901Z,101679.38
2022-10-06T08:17:54.095Z,101680.25
2022-10-06T08:20:21.384Z,101668.94
2022-10-06T08:22:48.796Z,101675.72
2022-10-06T08:25:16.529Z,101681.78
2022-10-06T08:27:48.959Z,101679.28
2022-10-06T08:30:18.592Z,101678.44
2022-10-06T08:32:47.583Z,101680.16
2022-10-06T08:35:15.030Z,101678.09
2022-10-06T08:37:43.061Z,101666.03
2022-10-06T08:40:13.384Z,101661.97
2022-10-06T08:43:01.705Z,101653.94
2022-10-06T08:45:38.637Z,101654.44
2022-10-06T08:48:21.347Z,101657.81
2022-10-06T08:51:19.656Z,101659.41
2022-10-06T08:54:12.869Z,101653.75
2022-10-06T08:57:05.358Z,101665.25
2022-10-06T08:59:35.325Z,101658.59
2022-10-06T09:02:07.532Z,101659.00
2022-10-06T09:04:34.852Z,101657.59
2022-10-06T09:07:12.345Z,101655.44
2022-10-06T09:10:20.967Z,101650.00
2022-10-06T09:12:58.334Z,101655.75
2022-10-06T09:15:35.191Z,101652.72
2022-10-06T09:18:56.434Z,101657.84
2022-10-06T09:21:30.370Z,101654.47
2022-10-06T09:24:03.858Z,101654.09
2022-10-06T09:26:32.472Z,101654.13
2022-10-06T09:29:00.410Z,101643.50
2022-10-06T09:31:29.877Z,101657.25
2022-10-06T09:34:46.481Z,101651.22
2022-10-06T09:37:14.168Z,101645.31
2022-10-06T09:39:44.302Z,101640.31
2022-10-06T09:42:19.242Z,101645.31
2022-10-06T09:45:01.194Z,101652.31
2022-10-06T09:48:12.371Z,101643.16
2022-10-06T09:50:40.652Z,101645.44
2022-10-06T09:53:12.848Z,101637.94
2022-10-06T09:55:46.353Z,101635.19
2022-10-06T09:58:38.016Z,101635.50
2022-10-06T10:01:11.925Z,101636.97
2022-10-06T10:04:01.854Z,101629.22
2022-10-06T10:06:37.372Z,101635.41
2022-10-06T10:09:22.125Z,101630.81
2022-10-06T10:12:27.490Z,101631.66
2022-10-06T10:15:00.130Z,101634.22
2022-10-06T10:17:32.460Z,101633.53
2022-10-06T10:20:01.558Z,101631.09
2022-10-06T10:22:35.371Z,101629.84
2022-10-06T10:25:08.677Z,101626.53
2022-10-06T10:28:03.767Z,101630.81
2022-10-06T10:30:33.701Z,101622.19
2022-10-06T10:33:09.916Z,101620.19
2022-10-06T10:35:41.768Z,101621.88
2022-10-06T10:38:19.426Z,101622.06
2022-10-06T10:40:55.433Z,101615.00
2022-10-06T10:43:27.913Z,101622.50
2022-10-06T10:46:02.865Z,101607.69
2022-10-06T10:48:39.456Z,101611.25
2022-10-06T10:51:31.153Z,101614.44
2022-10-06T10:54:09.722Z,101612.41
2022-10-06T10:56:37.829Z,101607.50
2022-10-06T10:59:27.806Z,101607.91
2022-10-06T11:02:02.158Z,101615.97
2022-10-06T11:04:30.679Z,101606.59
2022-10-06T11:07:14.239Z,101603.84
2022-10-06T11:09:56.929Z,101607.03
2022-10-06T11:12:46.465Z,101602.59
2022-10-06T11:15:19.734Z,101604.03
2022-10-06T11:17:50.321Z,101609.88
2022-10-06T11:20:39.092Z,101595.06
2022-10-06T11:23:24.819Z,101597.94
2022-10-06T11:26:13.469Z,101595.94
2022-10-06T11:29:17.190Z,101600.84
2022-10-06T11:31:54.717Z,101599.69
2022-10-06T11:34:22.123Z,101602.41
2022-10-06T11:37:00.187Z,101597.09
2022-10-06T11:39:36.035Z,101597.94
2022-10-06T11:42:27.183Z,101594.22
2022-10-06T11:45:03.247Z,101593.50
2022-10-06T11:47:36.215Z,101588.75
2022-10-06T11:50:36.807Z,101585.00
2022-10-06T11:53:46.517Z,101582.97
2022-10-06T11:56:16.708Z,101592.00
2022-10-06T11:58:56.184Z,101580.69
2022-10-06T12:01:36.435Z,101584.28
2022-10-06T12:04:08.168Z,101584.00
2022-10-06T12:06:42.227Z,101582.13
2022-10-06T12:09:28.559Z,101586.25
2022-10-06T12:12:24.880Z,101585.41
2022-10-06T12:18:21.337Z,101582.50
2022-10-06T12:21:06.509Z,101578.91
2022-10-06T12:23:53.849Z,101579.47
2022-10-06T12:26:26.462Z,101562.06
2022-10-06T12:29:02.210Z,101575.72
2022-10-06T12:31:32.532Z,101579.78
2022-10-06T12:33:59.793Z,101569.19
2022-10-06T12:36:29.367Z,101569.19
2022-10-06T12:39:22.825Z,101555.53
2022-10-06T12:41:59.271Z,101560.81
2022-10-06T12:44:30.627Z,101557.22
2022-10-06T12:47:01.412Z,101557.22
2022-10-06T12:50:02.106Z,101553.66
2022-10-06T12:52:44.985Z,101546.44
2022-10-06T12:55:21.362Z,101539.44
2022-10-06T12:57:53.367Z,101546.91
2022-10-06T13:00:40.662Z,101544.19
2022-10-06T13:03:16.649Z,101544.03
2022-10-06T13:05:50.848Z,101546.22
2022-10-06T13:08:29.573Z,101538.19
2022-10-06T13:11:11.767Z,101540.91
2022-10-06T13:13:47.404Z,101535.47
2022-10-06T13:16:15.402Z,101539.72
2022-10-06T13:18:44.157Z,101538.03
2022-10-06T13:21:16.570Z,101531.72
2022-10-06T13:23:46.939Z,101537.00
2022-10-06T13:26:18.862Z,101534.28
2022-10-06T13:28:52.976Z,101527.09
2022-10-06T13:31:34.113Z,101530.28
2022-10-06T13:34:31.096Z,101522.56
2022-10-06T13:37:00.297Z,101521.84
2022-10-06T13:39:32.498Z,101523.72
2022-10-06T13:42:06.702Z,101523.88
2022-10-06T13:44:44.692Z,101522.31
2022-10-06T13:47:17.476Z,101524.81
2022-10-06T13:50:07.439Z,101513.31
2022-10-06T13:52:48.942Z,101521.66
2022-10-06T13:55:25.281Z,101518.53
2022-10-06T13:58:06.504Z,101522.72
2022-10-06T14:00:51.998Z,101517.00
2022-10-06T14:03:28.507Z,101526.50
2022-10-06T14:06:16.119Z,101520.78
2022-10-06T14:08:47.237Z,101519.47
2022-10-06T14:11:21.776Z,101520.06
2022-10-06T14:13:59.565Z,101520.66
2022-10-06T14:16:28.283Z,101530.19
2022-10-06T14:19:03.405Z,101519.84
2022-10-06T14:21:32.097Z,101529.47
2022-10-06T14:24:05.927Z,101532.09
2022-10-06T14:26:40.194Z,101520.19
2022-10-06T14:29:07.954Z,101524.50
2022-10-06T14:31:35.220Z,101530.69
2022-10-06T14:34:04.250Z,101524.22
2022-10-06T14:36:37.218Z,101530.56
2022-10-06T14:39:14.189Z,101524.25
2022-10-06T14:41:41.968Z,101533.22
2022-10-06T14:44:12.407Z,101534.25
2022-10-06T14:46:41.388Z,101534.38
2022-10-06T14:49:11.156Z,101531.78
2022-10-06T14:51:39.632Z,101535.63
2022-10-06T14:54:08.040Z,101533.16
2022-10-06T14:56:37.843Z,101533.41
2022-10-06T14:59:08.099Z,101530.03
2022-10-06T15:01:40.017Z,101536.44
2022-10-06T15:04:11.304Z,101537.38
2022-10-06T15:06:57.837Z,101547.34
2022-10-06T15:09:25.888Z,101545.44
2022-10-06T15:11:55.037Z,101545.25
2022-10-06T15:14:24.470Z,101546.78
2022-10-06T15:16:52.783Z,101554.00
2022-10-06T15:19:20.884Z,101558.50
2022-10-06T15:21:48.443Z,101551.28
2022-10-06T15:24:18.319Z,101562.94
2022-10-06T15:27:05.769Z,101561.72
2022-10-06T15:29:38.786Z,101560.72
2022-10-06T15:32:06.674Z,101562.34
2022-10-06T15:34:36.880Z,101567.56
2022-10-06T15:37:05.074Z,101566.38
2022-10-06T15:39:35.779Z,101561.81
2022-10-06T15:42:03.564Z,101573.06
2022-10-06T15:44:34.598Z,101575.53
2022-10-06T15:47:04.280Z,101567.28
2022-10-06T15:49:38.162Z,101579.38
2022-10-06T15:52:06.481Z,101579.00
2022-10-06T15:54:46.454Z,101576.66
2022-10-06T15:57:20.333Z,101576.41
2022-10-06T15:59:49.524Z,101576.69
2022-10-06T16:02:19.942Z,101581.22
2022-10-06T16:05:15.274Z,101584.44
2022-10-06T16:07:45.472Z,101579.53
2022-10-06T16:10:16.747Z,101594.19
2022-10-06T16:12:44.072Z,101592.53
2022-10-06T16:15:11.297Z,101589.31
2022-10-06T16:17:38.809Z,101592.41
2022-10-06T16:20:09.840Z,101599.91
2022-10-06T16:22:37.964Z,101591.16
2022-10-06T16:25:05.966Z,101589.78
2022-10-06T16:27:33.761Z,101588.31
2022-10-06T16:30:01.841Z,101582.25
2022-10-06T16:32:29.719Z,101584.25
2022-10-06T16:34:57.760Z,101597.16
2022-10-06T16:37:25.285Z,101585.81
2022-10-06T16:40:01.022Z,101582.59
2022-10-06T16:42:28.321Z,101584.69
2022-10-06T16:44:55.497Z,101585.00
2022-10-06T16:47:22.769Z,101588.00
2022-10-06T16:49:51.241Z,101585.38
2022-10-06T16:52:18.816Z,101581.94
2022-10-06T16:54:46.170Z,101592.00
2022-10-06T16:57:16.072Z,101581.94
2022-10-06T16:59:57.682Z,101587.34
2022-10-06T17:02:24.888Z,101587.56
2022-10-06T17:04:52.077Z,101589.56
2022-10-06T17:07:19.376Z,101589.03
2022-10-06T17:10:08.500Z,101595.44
2022-10-06T17:12:35.038Z,101586.44
2022-10-06T17:15:02.794Z,101585.72
2022-10-06T17:17:30.197Z,101585.81
2022-10-06T17:19:57.350Z,101586.16
2022-10-06T17:22:25.107Z,101591.69
2022-10-06T17:24:52.389Z,101588.50
2022-10-06T17:27:20.438Z,101586.72
2022-10-06T17:29:47.639Z,101596.94
2022-10-06T17:32:15.253Z,101601.59
2022-10-06T17:34:43.161Z,101595.56
2022-10-06T17:37:10.776Z,101600.34
2022-10-06T17:39:41.546Z,101601.44
2022-10-06T17:42:13.807Z,101606.22
2022-10-06T17:44:41.274Z,101601.88
2022-10-06T17:47:12.336Z,101604.72
2022-10-06T17:49:40.211Z,101601.25
2022-10-06T17:52:07.805Z,101603.31
2022-10-06T17:54:35.714Z,101606.88
2022-10-06T17:57:03.396Z,101598.13
2022-10-06T17:59:32.312Z,101606.31
2022-10-06T18:02:03.045Z,101612.63
2022-10-06T18:04:31.051Z,101610.88
2022-10-06T18:06:58.474Z,101602.88
2022-10-06T18:09:26.106Z,101610.16
2022-10-06T18:11:57.859Z,101599.44
2022-10-06T18:14:26.937Z,101602.16
2022-10-06T18:16:57.953Z,101601.38
2022-10-06T18:19:31.795Z,101604.94
2022-10-06T18:22:01.846Z,101612.31
2022-10-06T18:24:31.450Z,101621.31
2022-10-06T18:27:01.301Z,101621.94
2022-10-06T18:29:33.227Z,101610.28
2022-10-06T18:32:27.223Z,101616.75
2022-10-06T18:37:43.017Z,101616.97
2022-10-06T18:40:14.739Z,101609.06
2022-10-06T18:42:49.418Z,101607.56
2022-10-06T18:45:39.327Z,101618.50
2022-10-06T18:48:27.734Z,101622.31
2022-10-06T18:51:02.256Z,101618.97
2022-10-06T18:53:32.685Z,101622.41
2022-10-06T18:56:00.271Z,101623.53
2022-10-06T18:58:27.541Z,101618.97
2022-10-06T19:00:56.029Z,101622.75
2022-10-06T19:03:23.380Z,101624.59
2022-10-06T19:05:52.748Z,101631.00
2022-10-06T19:08:20.966Z,101623.94
2022-10-06T19:11:09.086Z,101629.47
2022-10-06T19:13:37.329Z,101625.16
2022-10-06T19:16:06.830Z,101629.69
2022-10-06T19:18:40.665Z,101616.28
2022-10-06T19:21:09.779Z,101624.63
2022-10-06T19:23:38.771Z,101611.44
2022-10-06T19:26:07.491Z,101620.53
2022-10-06T19:28:37.828Z,101619.63
2022-10-06T19:31:11.297Z,101616.19
2022-10-06T19:33:39.509Z,101619.22
2022-10-06T19:36:08.300Z,101619.34
2022-10-06T19:38:38.262Z,101624.09
2022-10-06T19:41:24.525Z,101630.69
2022-10-06T19:43:51.990Z,101627.44
2022-10-06T19:46:20.856Z,101624.97
2022-10-06T19:48:52.976Z,101630.47
2022-10-06T19:51:20.443Z,101629.84
2022-10-06T19:53:54.256Z,101621.94
2022-10-06T19:56:25.486Z,101621.16
2022-10-06T19:58:53.231Z,101624.00
2022-10-06T20:01:20.876Z,101628.63
2022-10-06T20:03:50.542Z,101632.53
2022-10-06T20:06:18.107Z,101635.44
2022-10-06T20:08:46.086Z,101628.41
2022-10-06T20:11:19.141Z,101638.47
2022-10-06T20:13:47.255Z,101632.28
2022-10-06T20:16:20.603Z,101628.94
2022-10-06T20:18:50.616Z,101637.16
2022-10-06T20:21:19.310Z,101629.06
2022-10-06T20:23:50.408Z,101637.34
2022-10-06T20:26:20.694Z,101641.03
2022-10-06T20:28:54.112Z,101633.13
2022-10-06T20:31:27.069Z,101637.13
2022-10-06T20:34:00.768Z,101635.41
2022-10-06T20:36:29.340Z,101629.31
2022-10-06T20:39:15.593Z,101641.19
2022-10-06T20:41:43.628Z,101642.03
2022-10-06T20:44:12.844Z,101643.13
2022-10-06T20:46:40.693Z,101629.84
2022-10-06T20:49:10.416Z,101637.28
2022-10-06T20:51:41.784Z,101634.56
2022-10-06T20:54:12.750Z,101638.25
2022-10-06T20:56:40.466Z,101639.44
2022-10-06T20:59:07.738Z,101633.16
2022-10-06T21:01:36.908Z,101631.53
2022-10-06T21:04:04.623Z,101626.25
2022-10-06T21:06:32.554Z,101629.06
2022-10-06T21:09:01.463Z,101632.63
2022-10-06T21:11:28.810Z,101632.72
2022-10-06T21:13:57.392Z,101623.75
2022-10-06T21:16:27.540Z,101628.41
2022-10-06T21:18:54.814Z,101625.78
2022-10-06T21:21:22.177Z,101621.47
2022-10-06T21:23:50.260Z,101626.00
2022-10-06T21:26:24.295Z,101621.56
2022-10-06T21:28:52.628Z,101630.56
2022-10-06T21:31:21.947Z,101627.75
2022-10-06T21:33:50.831Z,101632.28
2022-10-06T21:36:20.747Z,101627.75
2022-10-06T21:38:56.263Z,101622.34
2022-10-06T21:41:32.472Z,101624.06
2022-10-06T21:44:05.050Z,101626.75
2022-10-06T21:47:02.731Z,101625.78
2022-10-06T21:49:30.637Z,101627.63
2022-10-06T21:52:04.762Z,101622.13
2022-10-06T21:54:33.051Z,101619.53
2022-10-06T21:57:00.371Z,101617.59
2022-10-06T21:59:27.680Z,101615.84
2022-10-06T22:01:56.806Z,101617.69
2022-10-06T22:04:24.202Z,101616.81
2022-10-06T22:06:51.850Z,101615.22
2022-10-06T22:09:20.483Z,101611.66
2022-10-06T22:11:49.086Z,101613.56
2022-10-06T22:14:18.066Z,101620.16
2022-10-06T22:16:45.959Z,101612.06
2022-10-06T22:19:14.601Z,101617.56
2022-10-06T22:21:44.828Z,101605.91
2022-10-06T22:24:18.907Z,101614.00
2022-10-06T22:26:46.722Z,101612.47
2022-10-06T22:29:16.120Z,101614.19
2022-10-06T22:31:50.017Z,101611.50
2022-10-06T22:34:19.517Z,101614.28
2022-10-06T22:36:47.308Z,101615.38
2022-10-06T22:39:17.010Z,101615.47
2022-10-06T22:41:45.410Z,101613.72
2022-10-06T22:44:12.694Z,101613.72
2022-10-06T22:46:40.201Z,101612.97
2022-10-06T22:49:07.634Z,101605.88
2022-10-06T22:51:35.261Z,101612.19
2022-10-06T22:54:02.986Z,101621.38
2022-10-06T22:56:31.878Z,101608.09
2022-10-06T22:59:00.250Z,101607.41
2022-10-06T23:01:28.821Z,101611.28
2022-10-06T23:03:56.846Z,101614.97
2022-10-06T23:06:24.680Z,101615.06
2022-10-06T23:08:52.523Z,101610.84
2022-10-06T23:11:21.688Z,101610.19
2022-10-06T23:13:50.503Z,101606.69
2022-10-06T23:16:19.523Z,101609.50
2022-10-06T23:18:48.619Z,101607.78
2022-10-06T23:21:22.107Z,101612.88
2022-10-06T23:23:53.892Z,101609.19
2022-10-06T23:26:24.297Z,101610.06
2022-10-06T23:28:56.656Z,101613.81
2022-10-06T23:31:24.201Z,101607.47
2022-10-06T23:33:54.423Z,101605.63
2022-10-06T23:36:23.056Z,101596.88
2022-10-06T23:38:50.330Z,101603.13
2022-10-06T23:41:17.748Z,101602.28
2022-10-06T23:43:45.392Z,101598.41
2022-10-06T23:46:13.603Z,101594.66
2022-10-06T23:48:42.674Z,101589.91
2022-10-06T23:51:15.263Z,101595.28
2022-10-06T23:53:43.297Z,101585.47
2022-10-06T23:56:11.368Z,101593.69
2022-10-06T23:58:38.734Z,101585.66
